Time;durP1;ratioP1;P1;durP2;ratioP2;P2;SDS_P1;SDS_P2;PMS_P1;PMS_P2;Temp;Humidity;BMP_temperature;BMP_pressure;BME280_temperature;BME280_humidity;BME280_pressure;Samples;Min_cycle;Max_cycle;Signal;HPM_P1;HPM_P2
2021/11/21 00:00:26;;;;;;;25.77;17.92;;;;;;;;;;5035076;28;20029;-81
2021/11/21 00:02:52;;;;;;;22.23;18.20;;;;;;;;;;5034732;28;20036;-78
2021/11/21 00:05:19;;;;;;;24.92;17.23;;;;;;;;;;5034900;28;20067;-81
2021/11/21 00:07:45;;;;;;;20.55;16.20;;;;;;;;;;5034785;28;20514;-80
2021/11/21 00:10:12;;;;;;;20.38;14.65;;;;;;;;;;5033361;28;20516;-80
2021/11/21 00:12:38;;;;;;;68.53;45.70;;;;;;;;;;5034851;28;20029;-79
2021/11/21 00:15:05;;;;;;;118.63;72.07;;;;;;;;;;5034508;28;20029;-81
2021/11/21 00:17:31;;;;;;;24.25;18.95;;;;;;;;;;5034762;28;20460;-81
2021/11/21 00:19:57;;;;;;;19.65;15.75;;;;;;;;;;5034571;28;20029;-81
2021/11/21 00:22:25;;;;;;;25.40;17.98;;;;;;;;;;5034818;28;20083;-80
2021/11/21 00:24:51;;;;;;;51.20;31.60;;;;;;;;;;5034494;28;20471;-80
2021/11/21 00:27:17;;;;;;;44.58;30.83;;;;;;;;;;5034535;28;20021;-77
2021/11/21 00:29:44;;;;;;;49.00;32.75;;;;;;;;;;5034298;28;20030;-77
2021/11/21 00:32:10;;;;;;;50.42;34.90;;;;;;;;;;5034121;28;20461;-80
2021/11/21 00:34:36;;;;;;;68.55;42.40;;;;;;;;;;5034306;28;20022;-77
2021/11/21 00:37:03;;;;;;;60.25;40.90;;;;;;;;;;5034196;28;20096;-81
2021/11/21 00:39:29;;;;;;;56.90;39.75;;;;;;;;;;5033720;28;20076;-79
2021/11/21 00:41:55;;;;;;;53.05;36.22;;;;;;;;;;5034273;28;20026;-79
2021/11/21 00:44:22;;;;;;;49.58;33.50;;;;;;;;;;5033981;28;20060;-76
2021/11/21 00:46:48;;;;;;;49.60;35.50;;;;;;;;;;5034081;28;20113;-77
2021/11/21 00:49:16;;;;;;;54.75;36.90;;;;;;;;;;5033859;28;20033;-78
2021/11/21 00:51:42;;;;;;;49.20;36.60;;;;;;;;;;5034177;28;20025;-79
2021/11/21 00:54:22;;;;;;;53.75;36.40;;;;;;;;;;5034213;28;20030;-79
2021/11/21 00:56:48;;;;;;;49.83;33.47;;;;;;;;;;5032895;28;20069;-79
2021/11/21 00:59:19;;;;;;;48.70;34.05;;;;;;;;;;5034127;28;20171;-82
2021/11/21 01:01:45;;;;;;;49.30;32.55;;;;;;;;;;5032934;28;20037;-78
2021/11/21 01:04:11;;;;;;;42.22;30.70;;;;;;;;;;5034202;28;20064;-78
2021/11/21 01:06:37;;;;;;;42.78;29.23;;;;;;;;;;5034215;28;20030;-81
2021/11/21 01:09:04;;;;;;;34.38;25.80;;;;;;;;;;5033862;28;20515;-82
2021/11/21 01:11:30;;;;;;;38.70;27.90;;;;;;;;;;5032601;28;20412;-78
2021/11/21 01:13:56;;;;;;;28.30;23.55;;;;;;;;;;5032450;28;20033;-79
2021/11/21 01:16:22;;;;;;;28.73;21.48;;;;;;;;;;5033794;28;20029;-79
2021/11/21 01:18:48;;;;;;;30.80;22.15;;;;;;;;;;5033746;28;20079;-79
2021/11/21 01:21:14;;;;;;;29.00;23.10;;;;;;;;;;5033291;28;20025;-79
2021/11/21 01:23:40;;;;;;;38.15;27.52;;;;;;;;;;5033379;28;20383;-77
2021/11/21 01:26:07;;;;;;;36.45;28.50;;;;;;;;;;5033270;28;20029;-80
2021/11/21 01:28:33;;;;;;;42.67;29.45;;;;;;;;;;5033498;28;20033;-78
2021/11/21 01:30:59;;;;;;;37.78;25.80;;;;;;;;;;5033360;28;20038;-77
2021/11/21 01:33:26;;;;;;;33.67;22.73;;;;;;;;;;5032015;28;20076;-79
2021/11/21 01:35:52;;;;;;;39.90;28.20;;;;;;;;;;5033323;28;20099;-79
2021/11/21 01:38:19;;;;;;;27.58;20.48;;;;;;;;;;5033056;28;20052;-77
2021/11/21 01:40:45;;;;;;;23.52;16.33;;;;;;;;;;5033334;28;20034;-76
2021/11/21 01:43:11;;;;;;;27.95;17.80;;;;;;;;;;5032935;28;20098;-80
2021/11/21 01:45:38;;;;;;;30.65;19.52;;;;;;;;;;5033301;28;20028;-76
2021/11/21 01:48:04;;;;;;;32.95;22.52;;;;;;;;;;5032895;28;20480;-77
2021/11/21 01:50:35;;;;;;;29.52;21.30;;;;;;;;;;5032183;28;20040;-76
2021/11/21 01:53:01;;;;;;;28.42;19.42;;;;;;;;;;5033041;28;20030;-77
2021/11/21 01:55:27;;;;;;;29.10;21.38;;;;;;;;;;5032882;28;20029;-76
2021/11/21 01:57:54;;;;;;;30.73;22.08;;;;;;;;;;5032800;28;20032;-75
2021/11/21 02:00:21;;;;;;;31.45;21.55;;;;;;;;;;5032766;28;20036;-79
2021/11/21 02:02:48;;;;;;;28.75;21.25;;;;;;;;;;5031556;28;20034;-76
2021/11/21 02:05:15;;;;;;;31.92;19.52;;;;;;;;;;5032576;28;20535;-77
2021/11/21 02:07:46;;;;;;;27.30;18.45;;;;;;;;;;5032746;28;21039;-78
2021/11/21 02:10:13;;;;;;;21.55;16.02;;;;;;;;;;5032297;28;20044;-80
2021/11/21 02:12:40;;;;;;;23.05;17.52;;;;;;;;;;5032536;28;20029;-79
2021/11/21 02:15:10;;;;;;;21.70;17.30;;;;;;;;;;5032380;28;20100;-77
2021/11/21 02:17:37;;;;;;;22.13;16.20;;;;;;;;;;5032661;28;20037;-80
2021/11/21 02:20:04;;;;;;;21.48;15.80;;;;;;;;;;5032335;28;20033;-77
2021/11/21 02:22:31;;;;;;;24.50;17.02;;;;;;;;;;5032452;28;20034;-78
2021/11/21 02:24:57;;;;;;;20.50;14.48;;;;;;;;;;5032358;28;20425;-78
2021/11/21 02:27:26;;;;;;;19.63;13.45;;;;;;;;;;5032170;28;20029;-78
2021/11/21 02:29:52;;;;;;;19.13;13.52;;;;;;;;;;5030838;28;20431;-78
2021/11/21 02:32:18;;;;;;;16.73;12.57;;;;;;;;;;5032153;28;20033;-79
2021/11/21 02:34:44;;;;;;;16.05;12.98;;;;;;;;;;5032319;28;20104;-77
2021/11/21 02:37:10;;;;;;;15.80;13.00;;;;;;;;;;5031792;28;20095;-78
2021/11/21 02:39:38;;;;;;;16.38;11.95;;;;;;;;;;5031978;28;20063;-77
2021/11/21 02:42:04;;;;;;;16.90;12.43;;;;;;;;;;5032132;28;20039;-77
2021/11/21 02:44:30;;;;;;;13.45;10.55;;;;;;;;;;5032225;28;20033;-79
2021/11/21 02:46:57;;;;;;;14.02;11.05;;;;;;;;;;5032384;28;20148;-76
2021/11/21 02:49:23;;;;;;;16.52;12.63;;;;;;;;;;5031921;28;20091;-76
2021/11/21 02:51:49;;;;;;;16.63;12.10;;;;;;;;;;5032169;28;20100;-78
2021/11/21 02:54:15;;;;;;;14.82;11.93;;;;;;;;;;5031971;28;20626;-76
2021/11/21 02:56:42;;;;;;;21.35;13.93;;;;;;;;;;5032238;28;20025;-75
2021/11/21 02:59:08;;;;;;;28.20;19.75;;;;;;;;;;5031904;28;20037;-79
2021/11/21 03:01:34;;;;;;;26.15;19.13;;;;;;;;;;5032951;28;20060;-81
2021/11/21 03:04:00;;;;;;;27.45;19.15;;;;;;;;;;5036104;28;20029;-78
2021/11/21 03:06:29;;;;;;;30.77;19.95;;;;;;;;;;5035936;28;20033;-80
2021/11/21 03:08:56;;;;;;;36.83;22.75;;;;;;;;;;5036000;28;20040;-77
2021/11/21 03:11:41;;;;;;;28.50;19.38;;;;;;;;;;5035848;28;20037;-77
2021/11/21 03:14:07;;;;;;;24.73;19.08;;;;;;;;;;5035879;28;20388;-77
2021/11/21 03:16:33;;;;;;;20.40;13.43;;;;;;;;;;5035965;28;20030;-79
2021/11/21 03:18:59;;;;;;;19.42;13.93;;;;;;;;;;5035746;28;20021;-77
2021/11/21 03:21:26;;;;;;;19.40;13.88;;;;;;;;;;5035856;28;20048;-79
2021/11/21 03:23:52;;;;;;;21.27;13.77;;;;;;;;;;5035833;28;20079;-79
2021/11/21 03:26:20;;;;;;;17.00;13.23;;;;;;;;;;5035551;28;20029;-77
2021/11/21 03:28:46;;;;;;;17.65;14.18;;;;;;;;;;5035748;28;20021;-75
2021/11/21 03:31:12;;;;;;;21.48;14.57;;;;;;;;;;5035445;28;20044;-78
2021/11/21 03:33:39;;;;;;;22.27;15.23;;;;;;;;;;5035686;28;20029;-79
2021/11/21 03:36:05;;;;;;;18.90;12.30;;;;;;;;;;5035460;28;20029;-78
2021/11/21 03:38:31;;;;;;;14.35;11.90;;;;;;;;;;5035443;28;20025;-78
2021/11/21 03:41:00;;;;;;;15.07;12.60;;;;;;;;;;5035526;28;20029;-81
2021/11/21 03:43:26;;;;;;;17.92;12.32;;;;;;;;;;5035227;28;20025;-79
2021/11/21 03:45:52;;;;;;;17.13;12.93;;;;;;;;;;5035426;28;20025;-78
2021/11/21 03:48:19;;;;;;;14.02;12.13;;;;;;;;;;5035187;28;20381;-78
2021/11/21 03:50:45;;;;;;;14.70;11.45;;;;;;;;;;5035294;28;20038;-78
2021/11/21 03:53:11;;;;;;;15.70;11.23;;;;;;;;;;5034981;28;20098;-79
2021/11/21 03:55:37;;;;;;;18.30;12.48;;;;;;;;;;5034094;28;20034;-78
2021/11/21 03:58:04;;;;;;;18.80;13.60;;;;;;;;;;5035250;28;20029;-77
2021/11/21 04:00:30;;;;;;;17.48;13.63;;;;;;;;;;5035054;28;20111;-78
2021/11/21 04:02:56;;;;;;;16.08;11.10;;;;;;;;;;5035066;28;20029;-81
2021/11/21 04:05:22;;;;;;;19.40;13.93;;;;;;;;;;5033532;28;20474;-79
2021/11/21 04:07:48;;;;;;;19.33;13.07;;;;;;;;;;5034978;28;20037;-77
2021/11/21 04:10:15;;;;;;;20.95;14.07;;;;;;;;;;5033673;28;20038;-75
2021/11/21 04:12:41;;;;;;;15.73;11.95;;;;;;;;;;5033178;28;20472;-78
2021/11/21 04:15:08;;;;;;;16.63;13.45;;;;;;;;;;5034314;28;20096;-77
2021/11/21 04:17:34;;;;;;;16.35;12.45;;;;;;;;;;5034884;28;20033;-77
2021/11/21 04:20:00;;;;;;;16.98;12.50;;;;;;;;;;5034647;28;20132;-81
2021/11/21 04:22:27;;;;;;;16.38;12.30;;;;;;;;;;5034616;28;20087;-80
2021/11/21 04:24:53;;;;;;;15.75;11.70;;;;;;;;;;5034674;28;20842;-79
2021/11/21 04:27:19;;;;;;;14.85;10.60;;;;;;;;;;5034237;28;20029;-77
2021/11/21 04:29:46;;;;;;;14.77;11.27;;;;;;;;;;5034420;28;20056;-79
2021/11/21 04:32:12;;;;;;;14.23;10.90;;;;;;;;;;5034418;28;20030;-81
2021/11/21 04:34:38;;;;;;;28.95;20.25;;;;;;;;;;5034414;28;20030;-79
2021/11/21 04:37:04;;;;;;;84.35;50.78;;;;;;;;;;5034289;28;20096;-76
2021/11/21 04:39:30;;;;;;;29.10;19.25;;;;;;;;;;5033913;28;20057;-79
2021/11/21 04:41:56;;;;;;;17.80;13.43;;;;;;;;;;5034440;28;20469;-77
2021/11/21 04:44:23;;;;;;;25.27;16.88;;;;;;;;;;5033943;28;20022;-76
2021/11/21 04:46:50;;;;;;;15.63;11.93;;;;;;;;;;5034422;28;20056;-79
2021/11/21 04:49:16;;;;;;;18.33;12.25;;;;;;;;;;5034149;28;20029;-77
2021/11/21 04:51:42;;;;;;;18.58;12.65;;;;;;;;;;5034253;28;20092;-78
2021/11/21 04:54:15;;;;;;;16.42;12.52;;;;;;;;;;5033985;28;20038;-77
2021/11/21 04:56:42;;;;;;;17.88;13.90;;;;;;;;;;5034082;28;20029;-77
2021/11/21 04:59:09;;;;;;;34.88;24.40;;;;;;;;;;5034018;28;20022;-81
2021/11/21 05:01:35;;;;;;;22.75;17.70;;;;;;;;;;5033532;28;20030;-78
2021/11/21 05:04:01;;;;;;;26.92;21.25;;;;;;;;;;5033873;28;20068;-77
2021/11/21 05:06:27;;;;;;;16.15;13.05;;;;;;;;;;5033727;28;20101;-80
2021/11/21 05:08:53;;;;;;;17.33;13.32;;;;;;;;;;5033848;28;20026;-77
2021/11/21 05:11:19;;;;;;;21.40;17.35;;;;;;;;;;5033583;28;20211;-76
2021/11/21 05:13:45;;;;;;;20.10;15.82;;;;;;;;;;5033659;28;20029;-79
2021/11/21 05:16:11;;;;;;;21.40;15.05;;;;;;;;;;5033669;28;20029;-75
2021/11/21 05:18:37;;;;;;;29.67;21.13;;;;;;;;;;5033579;28;20358;-76
2021/11/21 05:21:04;;;;;;;24.30;17.75;;;;;;;;;;5033699;28;20037;-78
2021/11/21 05:23:30;;;;;;;27.60;18.85;;;;;;;;;;5034658;28;20025;-76
2021/11/21 05:25:56;;;;;;;32.67;20.00;;;;;;;;;;5033476;28;20030;-75
2021/11/21 05:28:22;;;;;;;25.52;16.80;;;;;;;;;;5033484;28;20116;-77
2021/11/21 05:30:50;;;;;;;26.92;19.40;;;;;;;;;;5033095;28;20095;-76
2021/11/21 05:33:16;;;;;;;24.63;17.80;;;;;;;;;;5033418;28;20041;-77
2021/11/21 05:35:43;;;;;;;20.95;15.77;;;;;;;;;;5033240;28;20021;-76
2021/11/21 05:38:09;;;;;;;20.77;16.23;;;;;;;;;;5033238;28;20472;-77
2021/11/21 05:40:35;;;;;;;18.42;15.40;;;;;;;;;;5032901;28;20558;-77
2021/11/21 05:43:01;;;;;;;34.03;26.75;;;;;;;;;;5032012;28;20029;-77
2021/11/21 05:45:28;;;;;;;45.95;35.55;;;;;;;;;;5033102;28;20021;-75
2021/11/21 05:47:54;;;;;;;56.45;41.75;;;;;;;;;;5033115;28;20537;-77
2021/11/21 05:50:20;;;;;;;43.60;32.22;;;;;;;;;;5033022;28;20037;-78
2021/11/21 05:52:48;;;;;;;51.83;37.42;;;;;;;;;;5032784;28;20064;-80
2021/11/21 05:55:15;;;;;;;50.00;37.47;;;;;;;;;;5032995;28;20052;-77
2021/11/21 05:57:41;;;;;;;50.90;35.13;;;;;;;;;;5032779;28;20485;-79
2021/11/21 06:00:09;;;;;;;52.50;38.20;;;;;;;;;;5033025;28;20025;-76
2021/11/21 06:02:35;;;;;;;73.95;43.88;;;;;;;;;;5032874;28;20037;-77
2021/11/21 06:05:01;;;;;;;48.38;34.13;;;;;;;;;;5032939;28;20032;-78
2021/11/21 06:07:28;;;;;;;49.10;33.85;;;;;;;;;;5032796;28;20029;-76
2021/11/21 06:09:54;;;;;;;48.97;34.17;;;;;;;;;;5032440;28;20033;-79
2021/11/21 06:12:20;;;;;;;69.63;49.53;;;;;;;;;;5032796;28;20029;-77
2021/11/21 06:14:46;;;;;;;48.33;36.90;;;;;;;;;;5032720;28;20499;-76
2021/11/21 06:17:12;;;;;;;40.90;31.42;;;;;;;;;;5032693;28;20201;-78
2021/11/21 06:19:39;;;;;;;43.70;32.17;;;;;;;;;;5032622;28;20026;-78
2021/11/21 06:22:05;;;;;;;67.82;45.20;;;;;;;;;;5032743;28;20036;-76
2021/11/21 06:24:31;;;;;;;75.53;47.65;;;;;;;;;;5032744;28;20068;-79
2021/11/21 06:26:57;;;;;;;65.85;44.72;;;;;;;;;;5032310;28;20087;-78
2021/11/21 06:29:24;;;;;;;53.90;38.42;;;;;;;;;;5032345;28;20029;-78
2021/11/21 06:31:50;;;;;;;55.90;39.78;;;;;;;;;;5032539;28;20040;-78
2021/11/21 06:34:17;;;;;;;68.88;49.35;;;;;;;;;;5032605;28;20033;-77
2021/11/21 06:36:44;;;;;;;223.48;103.95;;;;;;;;;;5032492;28;20120;-78
2021/11/21 06:39:11;;;;;;;190.50;95.18;;;;;;;;;;5032190;28;20186;-79
2021/11/21 06:41:37;;;;;;;216.82;102.13;;;;;;;;;;5032469;28;20031;-77
2021/11/21 06:44:05;;;;;;;140.23;72.50;;;;;;;;;;5032264;28;20025;-79
2021/11/21 06:46:31;;;;;;;128.65;71.88;;;;;;;;;;5032222;28;20025;-78
2021/11/21 06:48:58;;;;;;;114.22;67.20;;;;;;;;;;5032083;28;20057;-79
2021/11/21 06:51:24;;;;;;;57.63;36.55;;;;;;;;;;5032327;28;20029;-79
2021/11/21 06:53:50;;;;;;;51.03;35.83;;;;;;;;;;5032102;28;20469;-78
2021/11/21 06:56:17;;;;;;;55.55;39.25;;;;;;;;;;5032226;28;20128;-78
2021/11/21 06:58:43;;;;;;;46.67;34.22;;;;;;;;;;5032416;28;20057;-78
2021/11/21 07:01:09;;;;;;;45.70;33.55;;;;;;;;;;5032390;28;20029;-78
2021/11/21 07:03:36;;;;;;;42.75;32.75;;;;;;;;;;5032352;28;20460;-76
2021/11/21 07:06:02;;;;;;;36.90;27.38;;;;;;;;;;5031965;28;20388;-78
2021/11/21 07:08:28;;;;;;;31.80;24.60;;;;;;;;;;5032064;28;20029;-79
2021/11/21 07:10:54;;;;;;;36.42;26.10;;;;;;;;;;5031484;28;20124;-77
2021/11/21 07:13:23;;;;;;;34.92;27.35;;;;;;;;;;5032044;28;20025;-77
2021/11/21 07:15:52;;;;;;;32.05;22.65;;;;;;;;;;5032057;28;20283;-78
2021/11/21 07:18:18;;;;;;;45.45;30.00;;;;;;;;;;5031983;28;20033;-78
2021/11/21 07:20:44;;;;;;;40.97;28.83;;;;;;;;;;5030648;28;20032;-77
2021/11/21 07:23:11;;;;;;;45.95;32.10;;;;;;;;;;5031722;28;20078;-77
2021/11/21 07:25:37;;;;;;;44.90;34.58;;;;;;;;;;5031957;28;20025;-76
2021/11/21 07:28:04;;;;;;;43.85;32.83;;;;;;;;;;5030489;28;20511;-77
2021/11/21 07:30:30;;;;;;;46.85;34.10;;;;;;;;;;5031733;28;20037;-78
2021/11/21 07:32:56;;;;;;;47.35;35.22;;;;;;;;;;5031824;28;20030;-78
2021/11/21 07:35:23;;;;;;;47.72;35.15;;;;;;;;;;5031721;28;20044;-79
2021/11/21 07:37:50;;;;;;;46.00;33.05;;;;;;;;;;5031799;28;20032;-79
2021/11/21 07:40:17;;;;;;;46.92;32.78;;;;;;;;;;5031623;28;20385;-78
2021/11/21 07:42:44;;;;;;;41.22;29.13;;;;;;;;;;5031546;28;20037;-79
2021/11/21 07:45:11;;;;;;;43.53;28.85;;;;;;;;;;5031597;28;20064;-79
2021/11/21 07:47:39;;;;;;;36.17;27.02;;;;;;;;;;5031827;28;20018;-79
2021/11/21 07:50:06;;;;;;;41.83;31.60;;;;;;;;;;5034527;28;20400;-79
2021/11/21 07:52:32;;;;;;;59.22;38.15;;;;;;;;;;5035432;28;20540;-78
2021/11/21 07:54:58;;;;;;;58.70;42.15;;;;;;;;;;5035253;28;20440;-77
2021/11/21 07:57:24;;;;;;;48.95;35.95;;;;;;;;;;5035464;28;20036;-78
2021/11/21 07:59:50;;;;;;;52.25;36.88;;;;;;;;;;5035335;28;20455;-77
2021/11/21 08:02:17;;;;;;;47.63;34.72;;;;;;;;;;5034975;28;20025;-77
2021/11/21 08:04:43;;;;;;;42.17;32.58;;;;;;;;;;5035193;28;20029;-77
2021/11/21 08:07:09;;;;;;;43.53;33.72;;;;;;;;;;5035175;28;20061;-78
2021/11/21 08:09:36;;;;;;;60.13;43.78;;;;;;;;;;5035100;28;20106;-78
2021/11/21 08:12:02;;;;;;;57.95;41.83;;;;;;;;;;5034816;28;20029;-78
2021/11/21 08:14:28;;;;;;;52.25;36.90;;;;;;;;;;5034876;28;20029;-78
2021/11/21 08:16:55;;;;;;;40.10;28.05;;;;;;;;;;5034932;28;20036;-78
2021/11/21 08:19:21;;;;;;;36.53;27.33;;;;;;;;;;5034663;28;20099;-77
2021/11/21 08:21:47;;;;;;;34.78;23.20;;;;;;;;;;5034787;28;20431;-78
2021/11/21 08:24:13;;;;;;;53.72;34.42;;;;;;;;;;5034632;28;20026;-79
2021/11/21 08:26:39;;;;;;;49.65;34.88;;;;;;;;;;5033604;28;20408;-78
2021/11/21 08:29:06;;;;;;;31.98;24.25;;;;;;;;;;5034386;28;20433;-78
2021/11/21 08:31:32;;;;;;;25.40;17.52;;;;;;;;;;5034509;28;20041;-78
2021/11/21 08:33:58;;;;;;;25.33;18.58;;;;;;;;;;5034688;28;20025;-78
2021/11/21 08:36:24;;;;;;;28.42;20.55;;;;;;;;;;5034416;28;20384;-79
2021/11/21 08:38:50;;;;;;;29.13;22.55;;;;;;;;;;5034397;28;20507;-78
2021/11/21 08:41:17;;;;;;;24.50;18.00;;;;;;;;;;5033325;28;20061;-79
2021/11/21 08:43:43;;;;;;;21.58;16.38;;;;;;;;;;5033749;28;20026;-79
2021/11/21 08:46:09;;;;;;;25.88;17.73;;;;;;;;;;5032418;28;20033;-77
2021/11/21 08:48:35;;;;;;;19.88;15.73;;;;;;;;;;5033595;28;20534;-78
2021/11/21 08:51:02;;;;;;;19.42;15.52;;;;;;;;;;5033968;28;20033;-77
2021/11/21 08:53:29;;;;;;;21.20;15.68;;;;;;;;;;5033941;28;20026;-78
2021/11/21 08:55:55;;;;;;;22.45;15.90;;;;;;;;;;5032998;28;20080;-79
2021/11/21 08:58:21;;;;;;;22.10;16.60;;;;;;;;;;5033850;28;20090;-78
2021/11/21 09:00:47;;;;;;;22.33;17.13;;;;;;;;;;5033670;28;20036;-77
2021/11/21 09:03:14;;;;;;;22.13;14.93;;;;;;;;;;5033910;28;20030;-80
2021/11/21 09:05:40;;;;;;;18.45;12.45;;;;;;;;;;5033920;28;20036;-78
2021/11/21 09:08:06;;;;;;;15.10;11.43;;;;;;;;;;5034038;28;20049;-77
2021/11/21 09:10:33;;;;;;;15.65;12.32;;;;;;;;;;5033878;28;20037;-79
2021/11/21 09:12:59;;;;;;;18.92;12.70;;;;;;;;;;5033717;28;20108;-78
2021/11/21 09:15:25;;;;;;;21.70;15.27;;;;;;;;;;5033576;28;20068;-78
2021/11/21 09:17:53;;;;;;;16.35;12.27;;;;;;;;;;5033911;28;20056;-78
2021/11/21 09:20:20;;;;;;;14.30;11.38;;;;;;;;;;5033599;28;20057;-77
2021/11/21 09:22:46;;;;;;;14.27;11.40;;;;;;;;;;5033633;28;20021;-78
2021/11/21 09:25:12;;;;;;;12.93;11.07;;;;;;;;;;5033784;28;20096;-79
2021/11/21 09:27:39;;;;;;;12.13;10.60;;;;;;;;;;5033228;28;20104;-78
2021/11/21 09:30:06;;;;;;;12.95;10.68;;;;;;;;;;5033582;28;20041;-77
2021/11/21 09:32:32;;;;;;;14.23;10.30;;;;;;;;;;5033281;28;20031;-79
2021/11/21 09:34:58;;;;;;;13.52;10.45;;;;;;;;;;5033512;28;20068;-80
2021/11/21 09:37:24;;;;;;;12.95;9.75;;;;;;;;;;5033291;28;20396;-79
2021/11/21 09:39:50;;;;;;;16.58;13.05;;;;;;;;;;5033287;28;20093;-78
2021/11/21 09:42:16;;;;;;;14.13;11.63;;;;;;;;;;5033300;28;20025;-77
2021/11/21 09:44:42;;;;;;;15.13;11.68;;;;;;;;;;5033215;28;20033;-80
2021/11/21 09:47:09;;;;;;;14.55;12.30;;;;;;;;;;5033304;28;20026;-77
2021/11/21 09:49:35;;;;;;;15.25;11.60;;;;;;;;;;5032922;28;20425;-79
2021/11/21 09:52:01;;;;;;;13.10;10.80;;;;;;;;;;5033309;28;20036;-79
2021/11/21 09:54:28;;;;;;;11.80;9.95;;;;;;;;;;5031673;28;20033;-78
2021/11/21 09:56:55;;;;;;;15.88;11.25;;;;;;;;;;5032904;28;20029;-77
2021/11/21 09:59:39;;;;;;;13.93;11.23;;;;;;;;;;5033135;28;20535;-79
2021/11/21 10:02:18;;;;;;;14.20;9.98;;;;;;;;;;5033049;28;20079;-79
2021/11/21 10:04:45;;;;;;;10.73;9.52;;;;;;;;;;5033034;28;20488;-79
2021/11/21 10:07:29;;;;;;;12.13;10.13;;;;;;;;;;5032572;28;20026;-78
2021/11/21 10:09:57;;;;;;;14.88;12.00;;;;;;;;;;5032591;28;20034;-78
2021/11/21 10:12:24;;;;;;;10.30;8.50;;;;;;;;;;5032254;28;20546;-79
2021/11/21 10:14:53;;;;;;;9.20;8.30;;;;;;;;;;5032670;28;20076;-80
2021/11/21 10:17:19;;;;;;;10.73;8.55;;;;;;;;;;5031655;28;20076;-78
2021/11/21 10:20:03;;;;;;;16.00;12.65;;;;;;;;;;5032557;28;20091;-78
2021/11/21 10:22:49;;;;;;;23.17;15.65;;;;;;;;;;5033047;28;20037;-79
2021/11/21 10:25:37;;;;;;;19.08;13.23;;;;;;;;;;5032743;28;20018;-80
2021/11/21 10:28:13;;;;;;;14.65;10.32;;;;;;;;;;5032437;28;20084;-78
2021/11/21 10:30:59;;;;;;;11.52;8.82;;;;;;;;;;5032341;28;20048;-78
2021/11/21 10:33:27;;;;;;;11.57;8.75;;;;;;;;;;5032593;28;20030;-78
2021/11/21 10:35:54;;;;;;;12.23;8.32;;;;;;;;;;5032353;28;20021;-79
2021/11/21 10:38:20;;;;;;;13.98;9.43;;;;;;;;;;5032270;28;20033;-78
2021/11/21 10:40:47;;;;;;;12.73;9.90;;;;;;;;;;5032323;28;20492;-77
2021/11/21 10:43:18;;;;;;;12.95;9.32;;;;;;;;;;5032524;28;20061;-78
2021/11/21 10:45:48;;;;;;;13.32;9.52;;;;;;;;;;5032405;28;20488;-79
2021/11/21 10:48:23;;;;;;;10.98;7.63;;;;;;;;;;5032490;28;20032;-78
2021/11/21 10:50:50;;;;;;;9.75;8.35;;;;;;;;;;5032262;28;20209;-78
2021/11/21 10:53:16;;;;;;;10.88;7.70;;;;;;;;;;5032290;28;20412;-77
2021/11/21 10:55:42;;;;;;;9.32;7.35;;;;;;;;;;5032149;28;20056;-78
2021/11/21 10:58:15;;;;;;;9.40;7.95;;;;;;;;;;5032322;28;20361;-78
2021/11/21 11:00:42;;;;;;;11.75;7.88;;;;;;;;;;5032146;28;20029;-77
2021/11/21 11:03:18;;;;;;;10.88;7.78;;;;;;;;;;5032404;28;20033;-78
2021/11/21 11:05:44;;;;;;;7.72;6.50;;;;;;;;;;5032022;28;20108;-78
2021/11/21 11:08:13;;;;;;;10.77;8.73;;;;;;;;;;5032252;28;20029;-78
2021/11/21 11:10:39;;;;;;;8.45;7.50;;;;;;;;;;5031765;28;20547;-78
2021/11/21 11:13:07;;;;;;;10.98;7.28;;;;;;;;;;5032276;28;20072;-78
2021/11/21 11:15:37;;;;;;;11.02;8.85;;;;;;;;;;5031979;28;20032;-78
2021/11/21 11:18:05;;;;;;;9.25;7.47;;;;;;;;;;5032184;28;20478;-77
2021/11/21 11:20:31;;;;;;;9.45;7.15;;;;;;;;;;5031957;28;20129;-78
2021/11/21 11:22:58;;;;;;;7.55;6.57;;;;;;;;;;5033716;28;20029;-78
2021/11/21 11:25:26;;;;;;;8.77;6.28;;;;;;;;;;5036013;28;20040;-78
2021/11/21 11:27:57;;;;;;;8.13;6.53;;;;;;;;;;5036148;28;20040;-78
2021/11/21 11:30:31;;;;;;;10.65;6.30;;;;;;;;;;5034660;28;20400;-79
2021/11/21 11:33:16;;;;;;;22.23;11.47;;;;;;;;;;5036140;28;20033;-79
2021/11/21 11:35:47;;;;;;;9.63;7.85;;;;;;;;;;5036081;28;20342;-79
2021/11/21 11:38:17;;;;;;;10.00;8.43;;;;;;;;;;5035626;28;20108;-77
2021/11/21 11:41:02;;;;;;;10.93;7.13;;;;;;;;;;5035341;28;20050;-77
2021/11/21 11:43:48;;;;;;;7.80;6.03;;;;;;;;;;5035674;28;20025;-77
2021/11/21 11:46:14;;;;;;;14.25;7.75;;;;;;;;;;5034600;28;20029;-77
2021/11/21 11:48:47;;;;;;;9.80;7.13;;;;;;;;;;5036119;28;20029;-77
2021/11/21 11:51:19;;;;;;;8.38;6.50;;;;;;;;;;5036110;28;20515;-77
2021/11/21 11:53:46;;;;;;;9.95;6.85;;;;;;;;;;5035792;28;20387;-78
2021/11/21 11:56:17;;;;;;;10.38;8.82;;;;;;;;;;5035794;28;20044;-77
2021/11/21 11:58:45;;;;;;;9.85;7.35;;;;;;;;;;5034868;28;20428;-78
2021/11/21 12:01:12;;;;;;;8.35;6.60;;;;;;;;;;5035891;28;20033;-78
2021/11/21 12:03:39;;;;;;;7.78;6.97;;;;;;;;;;5035751;28;20025;-78
2021/11/21 12:06:06;;;;;;;7.43;6.00;;;;;;;;;;5035015;28;20084;-77
2021/11/21 12:08:32;;;;;;;12.90;9.38;;;;;;;;;;5034946;28;20022;-77
2021/11/21 12:10:58;;;;;;;9.20;7.40;;;;;;;;;;5034974;28;20026;-77
2021/11/21 12:13:30;;;;;;;11.55;8.93;;;;;;;;;;5035019;28;20029;-78
2021/11/21 12:16:01;;;;;;;8.20;6.95;;;;;;;;;;5035088;28;20385;-78
2021/11/21 12:18:46;;;;;;;11.00;7.95;;;;;;;;;;5034991;28;20022;-78
2021/11/21 12:21:12;;;;;;;7.60;6.72;;;;;;;;;;5035149;28;20032;-78
2021/11/21 12:23:41;;;;;;;9.40;7.28;;;;;;;;;;5034807;28;20498;-79
2021/11/21 12:26:21;;;;;;;9.23;6.20;;;;;;;;;;5034712;28;20494;-79
2021/11/21 12:29:05;;;;;;;7.45;6.50;;;;;;;;;;5034616;28;20384;-79
2021/11/21 12:31:42;;;;;;;10.40;7.95;;;;;;;;;;5034655;28;20120;-78
2021/11/21 12:34:27;;;;;;;8.63;7.70;;;;;;;;;;5033872;28;20060;-78
2021/11/21 12:37:12;;;;;;;11.00;7.68;;;;;;;;;;5034522;28;20036;-79
2021/11/21 12:39:40;;;;;;;9.40;6.13;;;;;;;;;;5034586;28;20140;-79
2021/11/21 12:42:11;;;;;;;8.75;6.28;;;;;;;;;;5034441;28;20100;-79
2021/11/21 12:44:38;;;;;;;8.73;6.63;;;;;;;;;;5034562;28;20037;-79
2021/11/21 12:47:05;;;;;;;9.30;7.05;;;;;;;;;;5034571;28;20032;-79
2021/11/21 12:49:32;;;;;;;7.65;6.78;;;;;;;;;;5034748;28;20053;-79
2021/11/21 12:52:17;;;;;;;7.88;6.25;;;;;;;;;;5032924;28;20036;-79
2021/11/21 12:54:43;;;;;;;;;;;;;;;;;;5034458;28;20025;-79
2021/11/21 12:57:12;;;;;;;19.10;14.27;;;;;;;;;;5034227;28;20462;-79
2021/11/21 12:59:57;;;;;;;14.30;11.20;;;;;;;;;;5034102;28;20491;-79
2021/11/21 13:02:23;;;;;;;;;;;;;;;;;;5033166;28;20384;-78
2021/11/21 13:04:52;;;;;;;9.68;7.18;;;;;;;;;;5033713;28;19916;-78
2021/11/21 13:07:24;;;;;;;7.05;6.10;;;;;;;;;;5033940;28;20048;-78
2021/11/21 13:10:09;;;;;;;7.60;6.10;;;;;;;;;;5033913;28;20056;-78
2021/11/21 13:12:35;;;;;;;;;;;;;;;;;;5034299;28;20095;-78
2021/11/21 13:15:06;;;;;;;8.13;5.70;;;;;;;;;;5033644;28;20399;-78
2021/11/21 13:17:32;;;;;;;9.43;7.22;;;;;;;;;;5032559;28;20048;-78
2021/11/21 13:20:06;;;;;;;12.65;10.10;;;;;;;;;;5032352;28;20026;-79
2021/11/21 13:22:51;;;;;;;17.40;13.40;;;;;;;;;;5033787;28;20037;-79
2021/11/21 13:25:17;;;;;;;;;;;;;;;;;;5034004;28;20044;-78
2021/11/21 13:27:43;;;;;;;9.50;7.65;;;;;;;;;;5033407;28;19986;-78
2021/11/21 13:30:11;;;;;;;8.80;6.53;;;;;;;;;;5032118;28;20056;-78
2021/11/21 13:32:37;;;;;;;7.95;6.25;;;;;;;;;;5033417;28;20025;-78
2021/11/21 13:35:16;;;;;;;7.50;6.75;;;;;;;;;;5033558;28;20037;-78
2021/11/21 13:37:42;;;;;;;8.10;6.05;;;;;;;;;;5033308;28;20040;-78
2021/11/21 13:40:08;;;;;;;8.88;5.90;;;;;;;;;;5031972;28;20111;-78
2021/11/21 13:43:07;;;;;;;9.15;6.88;;;;;;;;;;5031915;28;20030;-80
2021/11/21 13:45:34;;;;;;;9.00;7.10;;;;;;;;;;5032855;28;20397;-77
2021/11/21 13:48:24;;;;;;;12.77;8.82;;;;;;;;;;5032631;28;20037;-80
2021/11/21 13:50:50;;;;;;;9.20;7.22;;;;;;;;;;5031417;28;20496;-78
2021/11/21 13:53:16;;;;;;;8.98;7.50;;;;;;;;;;5033208;28;20083;-79
2021/11/21 13:55:42;;;;;;;11.95;7.78;;;;;;;;;;5033078;28;20029;-78
2021/11/21 13:58:09;;;;;;;10.65;8.27;;;;;;;;;;5033116;28;20079;-78
2021/11/21 14:00:35;;;;;;;8.57;6.55;;;;;;;;;;5032964;28;20113;-78
2021/11/21 14:03:05;;;;;;;8.32;6.68;;;;;;;;;;5031702;28;20021;-78
2021/11/21 14:05:31;;;;;;;10.65;8.38;;;;;;;;;;5033065;28;20052;-78
2021/11/21 14:07:59;;;;;;;8.90;7.38;;;;;;;;;;5032831;28;20065;-78
2021/11/21 14:10:31;;;;;;;9.13;6.55;;;;;;;;;;5033072;28;20435;-80
2021/11/21 14:13:11;;;;;;;6.43;5.70;;;;;;;;;;5032668;28;20052;-79
2021/11/21 14:15:37;;;;;;;6.78;5.75;;;;;;;;;;5032637;28;20029;-80
2021/11/21 14:18:04;;;;;;;10.13;7.65;;;;;;;;;;5032811;28;20025;-78
2021/11/21 14:20:33;;;;;;;8.45;6.63;;;;;;;;;;5032697;28;20025;-79
2021/11/21 14:23:07;;;;;;;7.65;5.95;;;;;;;;;;5031138;28;20041;-80
2021/11/21 14:25:37;;;;;;;6.28;5.43;;;;;;;;;;5032393;28;20026;-79
2021/11/21 14:28:08;;;;;;;70.55;41.97;;;;;;;;;;5032654;28;20029;-77